createdAt,value
2023-02-19T00:00:51.716Z,98930.73
2023-02-19T00:05:59.176Z,98934.80
2023-02-19T00:11:08.833Z,98926.88
2023-02-19T00:16:20.278Z,98932.88
2023-02-19T00:21:28.940Z,98941.13
2023-02-19T00:26:37.604Z,98939.83
2023-02-19T00:31:46.397Z,98943.27
2023-02-19T00:36:54.696Z,98937.86
2023-02-19T00:42:03.142Z,98940.44
2023-02-19T00:47:10.904Z,98936.06
2023-02-19T00:52:19.971Z,98934.62
2023-02-19T00:57:28.183Z,98933.86
2023-02-19T01:02:36.634Z,98930.52
2023-02-19T01:07:45.002Z,98932.38
2023-02-19T01:12:53.222Z,98933.84
2023-02-19T01:18:02.014Z,98932.53
2023-02-19T01:23:10.040Z,98932.86
2023-02-19T01:28:18.187Z,98937.58
2023-02-19T01:33:25.700Z,98941.16
2023-02-19T01:38:33.891Z,98947.69
2023-02-19T01:44:02.227Z,98951.23
2023-02-19T01:49:14.422Z,98951.81
2023-02-19T01:54:27.020Z,98952.06
2023-02-19T01:59:36.096Z,98950.71
2023-02-19T02:04:43.664Z,98948.68
2023-02-19T02:10:10.666Z,98948.71
2023-02-19T02:15:19.503Z,98945.26
2023-02-19T02:20:48.706Z,98949.30
2023-02-19T02:26:18.048Z,98943.14
2023-02-19T02:31:31.918Z,98932.89
2023-02-19T02:36:44.444Z,98938.00
2023-02-19T02:42:18.769Z,98946.05
2023-02-19T02:47:43.382Z,98940.93
2023-02-19T02:53:12.070Z,98933.74
2023-02-19T02:58:22.865Z,98928.08
2023-02-19T03:03:34.560Z,98933.72
2023-02-19T03:08:46.319Z,98938.31
2023-02-19T03:14:18.357Z,98936.29
2023-02-19T03:19:29.540Z,98931.52
2023-02-19T03:25:00.509Z,98923.74
2023-02-19T03:30:15.020Z,98917.55
2023-02-19T03:35:25.766Z,98930.26
2023-02-19T03:40:40.992Z,98938.99
2023-02-19T03:45:58.483Z,98935.77
2023-02-19T03:51:20.685Z,98936.16
2023-02-19T03:56:36.466Z,98935.02
2023-02-19T04:01:49.296Z,98935.60
2023-02-19T04:07:00.232Z,98939.11
2023-02-19T04:12:11.277Z,98933.42
2023-02-19T04:17:27.019Z,98935.51
2023-02-19T04:22:35.870Z,98936.05
2023-02-19T04:27:47.122Z,98934.20
2023-02-19T04:32:55.386Z,98929.19
2023-02-19T04:38:04.010Z,98925.02
2023-02-19T04:43:11.631Z,98924.21
2023-02-19T04:48:19.648Z,98927.51
2023-02-19T04:53:27.721Z,98922.83
2023-02-19T04:58:36.572Z,98924.37
2023-02-19T05:03:44.812Z,98920.22
2023-02-19T05:08:52.421Z,98918.09
2023-02-19T05:14:00.463Z,98918.37
2023-02-19T05:19:08.034Z,98913.33
2023-02-19T05:24:15.808Z,98915.35
2023-02-19T05:29:23.518Z,98914.63
2023-02-19T05:34:31.966Z,98911.29
2023-02-19T05:39:40.346Z,98909.50
2023-02-19T05:44:49.075Z,98908.98
2023-02-19T05:49:57.388Z,98909.90
2023-02-19T05:55:05.819Z,98907.13
2023-02-19T06:00:17.285Z,98907.13
2023-02-19T06:05:26.132Z,98911.27
2023-02-19T06:10:33.268Z,98917.36
2023-02-19T06:15:41.766Z,98919.47
2023-02-19T06:20:49.639Z,98924.19
2023-02-19T06:26:06.901Z,98931.47
2023-02-19T06:31:15.689Z,98938.56
2023-02-19T06:36:25.272Z,98946.02
2023-02-19T06:41:33.748Z,98948.08
2023-02-19T06:46:41.855Z,98953.42
2023-02-19T06:51:51.171Z,98952.34
2023-02-19T06:56:59.727Z,98955.95
2023-02-19T07:02:07.796Z,98960.61
2023-02-19T07:07:16.594Z,98962.83
2023-02-19T07:12:25.068Z,98962.11
2023-02-19T07:17:33.481Z,98963.81
2023-02-19T07:22:41.646Z,98967.58
2023-02-19T07:27:48.939Z,98973.50
2023-02-19T07:32:56.572Z,98977.13
2023-02-19T07:38:04.543Z,98980.77
2023-02-19T07:43:13.107Z,98989.38
2023-02-19T07:48:21.796Z,98994.16
2023-02-19T07:53:31.165Z,98996.15
2023-02-19T07:58:39.563Z,99005.64
2023-02-19T08:03:50.409Z,99008.34
2023-02-19T08:08:59.285Z,99014.87
2023-02-19T08:14:07.600Z,99021.23
2023-02-19T08:19:15.808Z,99029.46
2023-02-19T08:24:24.049Z,99035.27
2023-02-19T08:29:33.228Z,99036.89
2023-02-19T08:34:42.501Z,99043.91
2023-02-19T08:39:50.952Z,99050.02
2023-02-19T08:45:00.168Z,99055.36
2023-02-19T08:50:10.759Z,99055.31
2023-02-19T08:55:18.540Z,99054.70
2023-02-19T09:00:28.457Z,99050.95
2023-02-19T09:05:36.896Z,99054.55
2023-02-19T09:10:45.900Z,99052.42
2023-02-19T09:15:54.752Z,99052.55
2023-02-19T09:21:06.770Z,99055.88
2023-02-19T09:26:14.767Z,99053.80
2023-02-19T09:31:23.096Z,99055.27
2023-02-19T09:36:33.936Z,99053.90
2023-02-19T09:41:47.028Z,99055.61
2023-02-19T09:46:56.143Z,99049.04
2023-02-19T09:52:08.206Z,99067.60
2023-02-19T09:57:20.512Z,99074.35
2023-02-19T10:02:31.404Z,99077.42
2023-02-19T10:07:41.623Z,99075.06
2023-02-19T10:12:53.698Z,99073.20
2023-02-19T10:18:06.233Z,99072.60
2023-02-19T10:23:17.974Z,99076.23
2023-02-19T10:28:30.263Z,99080.37
2023-02-19T10:33:53.412Z,99085.45
2023-02-19T10:39:02.494Z,99083.88
2023-02-19T10:44:16.803Z,99084.69
2023-02-19T10:49:30.853Z,99093.23
2023-02-19T10:54:39.079Z,99096.89
2023-02-19T10:59:53.718Z,99099.23
2023-02-19T11:05:18.269Z,99102.48
2023-02-19T11:10:30.981Z,99094.30
2023-02-19T11:15:40.268Z,99098.28
2023-02-19T11:20:54.922Z,99110.35
2023-02-19T11:26:05.537Z,99106.95
2023-02-19T11:31:27.961Z,99106.36
2023-02-19T11:36:38.649Z,99107.44
2023-02-19T11:42:04.949Z,99111.87
2023-02-19T11:47:35.192Z,99110.79
2023-02-19T11:52:52.830Z,99117.37
2023-02-19T11:58:17.612Z,99121.78
2023-02-19T12:03:46.647Z,99130.48
2023-02-19T12:09:25.583Z,99136.77
2023-02-19T12:14:53.796Z,99145.89
2023-02-19T12:20:21.084Z,99154.64
2023-02-19T12:25:42.348Z,99165.73
2023-02-19T12:31:06.522Z,99168.39
2023-02-19T12:36:24.795Z,99171.77
2023-02-19T12:41:43.057Z,99175.17
2023-02-19T12:46:54.830Z,99185.10
2023-02-19T12:52:05.216Z,99192.56
2023-02-19T12:57:19.333Z,99195.48
2023-02-19T13:02:33.597Z,99202.95
2023-02-19T13:07:46.909Z,99203.40
2023-02-19T13:12:59.159Z,99208.33
2023-02-19T13:18:14.723Z,99213.20
2023-02-19T13:23:44.049Z,99210.00
2023-02-19T13:29:06.936Z,99218.09
2023-02-19T13:34:30.387Z,99230.75
2023-02-19T13:39:38.072Z,99243.55
2023-02-19T13:44:57.733Z,99246.37
2023-02-19T13:50:19.848Z,99247.80
2023-02-19T13:55:59.038Z,99246.48
2023-02-19T14:01:08.969Z,99253.10
2023-02-19T14:06:17.038Z,99253.02
2023-02-19T14:12:01.174Z,99263.41
2023-02-19T14:17:29.981Z,99268.73
2023-02-19T14:23:25.720Z,99271.21
2023-02-19T14:28:37.515Z,99277.17
2023-02-19T14:33:49.813Z,99281.10
2023-02-19T14:38:58.793Z,99286.10
2023-02-19T14:44:08.722Z,99288.88
2023-02-19T14:49:22.011Z,99289.89
2023-02-19T14:54:42.028Z,99295.05
2023-02-19T15:00:00.367Z,99301.07
2023-02-19T15:05:19.867Z,99311.91
2023-02-19T15:10:29.706Z,99319.96
2023-02-19T15:15:41.979Z,99330.15
2023-02-19T15:20:51.643Z,99336.70
2023-02-19T15:26:01.029Z,99339.78
2023-02-19T15:31:18.924Z,99349.69
2023-02-19T15:36:33.674Z,99358.93
2023-02-19T15:41:43.268Z,99362.48
2023-02-19T15:46:52.474Z,99367.91
2023-02-19T15:52:06.178Z,99369.03
2023-02-19T15:57:21.785Z,99380.77
2023-02-19T16:02:30.244Z,99383.06
2023-02-19T16:07:38.582Z,99393.20
2023-02-19T16:12:56.545Z,99398.30
2023-02-19T16:18:05.452Z,99403.08
2023-02-19T16:23:22.503Z,99412.69
2023-02-19T16:28:36.853Z,99419.92
2023-02-19T16:33:48.514Z,99431.13
2023-02-19T16:39:25.854Z,99434.27
2023-02-19T16:44:38.038Z,99437.09
2023-02-19T16:49:44.857Z,99450.66
2023-02-19T16:54:53.591Z,99457.98
2023-02-19T17:00:02.768Z,99464.38
2023-02-19T17:05:10.823Z,99468.36
2023-02-19T17:10:23.325Z,99477.19
2023-02-19T17:15:32.473Z,99476.98
2023-02-19T17:20:42.715Z,99485.42
2023-02-19T17:25:50.950Z,99490.73
2023-02-19T17:30:59.291Z,99497.95
2023-02-19T17:36:08.304Z,99504.46
2023-02-19T17:41:17.649Z,99510.80
2023-02-19T17:46:28.617Z,99507.25
2023-02-19T17:51:37.025Z,99510.13
2023-02-19T17:56:47.637Z,99509.34
2023-02-19T18:01:56.276Z,99509.58
2023-02-19T18:07:04.204Z,99507.73
2023-02-19T18:12:12.927Z,99507.29
2023-02-19T18:17:21.401Z,99509.96
2023-02-19T18:22:28.908Z,99507.77
2023-02-19T18:27:37.696Z,99514.75
2023-02-19T18:32:48.063Z,99514.45
2023-02-19T18:37:56.959Z,99515.38
2023-02-19T18:43:06.692Z,99515.81
2023-02-19T18:48:16.183Z,99521.58
2023-02-19T18:53:25.455Z,99527.88
2023-02-19T18:58:33.155Z,99534.90
2023-02-19T19:03:42.214Z,99532.17
2023-02-19T19:08:50.533Z,99539.00
2023-02-19T19:13:58.139Z,99542.52
2023-02-19T19:19:07.227Z,99547.77
2023-02-19T19:24:16.482Z,99553.88
2023-02-19T19:29:26.250Z,99549.61
2023-02-19T19:34:35.115Z,99551.72
2023-02-19T19:39:44.420Z,99556.61
2023-02-19T19:44:53.773Z,99557.88
2023-02-19T19:50:02.404Z,99566.22
2023-02-19T19:55:10.728Z,99559.66
2023-02-19T20:00:20.891Z,99560.20
2023-02-19T20:05:29.320Z,99558.33
2023-02-19T20:10:36.917Z,99558.17
2023-02-19T20:15:45.248Z,99555.92
2023-02-19T20:20:53.062Z,99555.77
2023-02-19T20:26:01.476Z,99566.37
2023-02-19T20:31:10.214Z,99574.89
2023-02-19T20:36:17.977Z,99573.01
2023-02-19T20:41:25.294Z,99568.86
2023-02-19T20:46:33.978Z,99566.98
2023-02-19T20:51:49.162Z,99563.02
2023-02-19T20:56:58.629Z,99565.98
2023-02-19T21:02:08.620Z,99572.23
2023-02-19T21:07:16.457Z,99565.13
2023-02-19T21:12:26.514Z,99562.56
2023-02-19T21:17:34.965Z,99570.03
2023-02-19T21:22:43.926Z,99563.84
2023-02-19T21:27:52.510Z,99560.73
2023-02-19T21:32:59.920Z,99558.35
2023-02-19T21:38:09.065Z,99559.92
2023-02-19T21:43:18.039Z,99563.04
2023-02-19T21:48:26.527Z,99557.64
2023-02-19T21:53:35.102Z,99550.17
2023-02-19T21:58:42.637Z,99549.44
2023-02-19T22:03:51.385Z,99557.39
2023-02-19T22:08:59.057Z,99558.24
2023-02-19T22:14:07.923Z,99555.47
2023-02-19T22:19:16.737Z,99549.04
2023-02-19T22:24:27.129Z,99542.96
2023-02-19T22:29:35.334Z,99543.30
2023-02-19T22:34:44.592Z,99541.21
2023-02-19T22:39:52.000Z,99543.79
2023-02-19T22:45:00.321Z,99547.04
2023-02-19T22:50:08.837Z,99551.69
2023-02-19T22:55:16.468Z,99553.73
2023-02-19T23:00:25.757Z,99561.33
2023-02-19T23:05:36.064Z,99576.23
2023-02-19T23:10:44.856Z,99568.42
2023-02-19T23:15:52.443Z,99571.18
2023-02-19T23:21:01.057Z,99567.71
2023-02-19T23:26:10.029Z,99560.41
2023-02-19T23:31:18.808Z,99555.05
2023-02-19T23:36:26.442Z,99560.95
2023-02-19T23:41:33.885Z,99558.70
2023-02-19T23:46:41.873Z,99549.17
2023-02-19T23:51:50.507Z,99546.59
2023-02-19T23:56:58.782Z,99551.78
